Time;durP1;ratioP1;P1;durP2;ratioP2;P2;SDS_P1;SDS_P2;PMS_P1;PMS_P2;Temp;Humidity;BMP_temperature;BMP_pressure;BME280_temperature;BME280_humidity;BME280_pressure;Samples;Min_cycle;Max_cycle;Signal;HPM_P1;HPM_P2
2023/07/10 00:01:27;;;;;;;11.85;6.57;;;23.60;96.30;;;;;;5033947;28;20067;-73
2023/07/10 00:03:53;;;;;;;12.30;6.22;;;23.60;96.40;;;;;;5033257;28;20083;-73
2023/07/10 00:06:19;;;;;;;7.35;5.00;;;23.60;96.40;;;;;;5033696;28;20025;-74
2023/07/10 00:08:45;;;;;;;7.15;4.88;;;23.70;96.40;;;;;;5032957;28;20064;-73
2023/07/10 00:11:26;;;;;;;6.88;3.75;;;23.70;96.50;;;;;;5033176;28;20068;-73
2023/07/10 00:13:51;;;;;;;7.93;4.65;;;23.80;96.80;;;;;;5033564;28;20033;-75
2023/07/10 00:16:19;;;;;;;5.88;3.45;;;23.80;96.40;;;;;;5033770;28;20121;-74
2023/07/10 00:18:46;;;;;;;7.07;4.45;;;23.80;96.40;;;;;;5033392;28;20033;-74
2023/07/10 00:21:12;;;;;;;11.07;6.70;;;23.90;96.40;;;;;;5033292;28;20038;-74
2023/07/10 00:23:38;;;;;;;11.07;6.55;;;24.00;96.10;;;;;;5033164;28;20489;-74
2023/07/10 00:26:19;;;;;;;8.90;6.03;;;23.90;96.10;;;;;;5031942;28;20080;-73
2023/07/10 00:28:47;;;;;;;11.90;6.10;;;23.90;96.10;;;;;;5033326;28;20088;-73
2023/07/10 00:31:13;;;;;;;8.25;6.15;;;23.80;96.20;;;;;;5032984;28;20431;-73
2023/07/10 00:33:38;;;;;;;7.57;5.10;;;23.70;96.30;;;;;;5032967;28;20030;-73
2023/07/10 00:36:25;;;;;;;14.02;7.03;;;23.60;96.40;;;;;;5015584;28;20033;-73
2023/07/10 00:38:50;;;;;;;12.00;6.72;;;23.60;96.50;;;;;;5033137;28;20029;-73
2023/07/10 00:41:17;;;;;;;8.05;5.18;;;23.60;96.50;;;;;;5032798;28;20079;-73
2023/07/10 00:43:47;;;;;;;7.45;5.43;;;23.50;96.70;;;;;;5032947;28;20515;-73
2023/07/10 00:46:31;;;;;;;6.43;3.65;;;23.40;96.80;;;;;;5033163;28;20034;-73
2023/07/10 00:49:14;;;;;;;6.82;4.68;;;23.40;96.90;;;;;;5033104;28;20025;-73
2023/07/10 00:51:51;;;;;;;6.55;4.63;;;23.40;96.90;;;;;;5032677;28;20029;-74
2023/07/10 00:54:28;;;;;;;9.43;6.05;;;23.50;96.90;;;;;;5033349;28;20021;-74
2023/07/10 00:56:55;;;;;;;6.90;4.22;;;23.50;96.80;;;;;;5033004;28;20036;-73
2023/07/10 00:59:24;;;;;;;8.10;5.07;;;23.50;96.80;;;;;;5033194;28;20037;-74
2023/07/10 01:02:07;;;;;;;11.40;6.47;;;23.60;96.80;;;;;;5015303;28;20025;-74
2023/07/10 01:04:45;;;;;;;9.13;5.85;;;23.60;96.80;;;;;;5033107;28;20033;-74
2023/07/10 01:07:14;;;;;;;10.30;5.68;;;23.50;96.70;;;;;;5014845;28;20025;-74
2023/07/10 01:09:43;;;;;;;8.77;4.90;;;23.50;96.80;;;;;;5015614;28;20385;-74
2023/07/10 01:12:09;;;;;;;11.10;6.20;;;23.30;96.90;;;;;;5015203;28;20405;-73
2023/07/10 01:14:35;;;;;;;8.95;4.60;;;23.30;97.00;;;;;;5032506;28;20043;-73
2023/07/10 01:17:06;;;;;;;8.65;5.43;;;23.30;97.00;;;;;;5032911;28;20363;-74
2023/07/10 01:19:34;;;;;;;7.38;4.15;;;23.30;96.90;;;;;;5032944;28;20049;-73
2023/07/10 01:22:00;;;;;;;9.13;4.70;;;23.30;97.00;;;;;;5017610;28;20143;-74
2023/07/10 01:24:26;;;;;;;7.53;3.85;;;23.30;97.10;;;;;;5036185;28;20561;-74
2023/07/10 01:26:53;;;;;;;5.97;3.78;;;23.30;97.10;;;;;;5031618;28;20144;-74
2023/07/10 01:29:25;;;;;;;11.70;5.88;;;23.30;97.10;;;;;;5036180;28;20037;-73
2023/07/10 01:31:54;;;;;;;10.27;5.35;;;23.30;97.10;;;;;;5036836;28;20033;-74
2023/07/10 01:34:23;;;;;;;9.02;5.00;;;23.20;97.00;;;;;;5036260;28;20038;-73
2023/07/10 01:36:50;;;;;;;8.60;4.53;;;23.20;97.00;;;;;;5035843;28;20436;-73
2023/07/10 01:39:15;;;;;;;9.18;4.80;;;23.10;97.00;;;;;;5036315;28;20045;-75
2023/07/10 01:41:44;;;;;;;5.65;3.35;;;23.10;97.10;;;;;;5036244;28;20060;-75
2023/07/10 01:44:32;;;;;;;6.60;3.38;;;23.10;97.20;;;;;;5034920;28;20021;-74
2023/07/10 01:47:01;;;;;;;8.38;3.80;;;23.10;97.40;;;;;;5036069;28;20032;-74
2023/07/10 01:49:35;;;;;;;4.55;3.53;;;23.20;97.40;;;;;;5034554;28;20052;-73
2023/07/10 01:52:03;;;;;;;6.13;3.05;;;23.30;97.30;;;;;;5036167;28;20033;-75
2023/07/10 01:54:31;;;;;;;6.53;3.75;;;23.40;97.30;;;;;;5035912;28;20112;-74
2023/07/10 01:56:56;;;;;;;5.65;3.58;;;23.40;97.10;;;;;;5035990;28;20032;-74
2023/07/10 01:59:22;;;;;;;6.82;4.15;;;23.50;96.70;;;;;;5035387;28;20457;-74
2023/07/10 02:01:48;;;;;;;6.85;3.00;;;23.50;96.60;;;;;;5035629;28;20029;-74
2023/07/10 02:04:14;;;;;;;3.90;2.63;;;23.50;96.60;;;;;;5034262;28;20021;-74
2023/07/10 02:06:39;;;;;;;6.72;3.35;;;23.60;96.70;;;;;;5035553;28;20056;-75
2023/07/10 02:09:06;;;;;;;4.93;2.00;;;23.60;96.60;;;;;;5035303;28;20041;-74
2023/07/10 02:11:34;;;;;;;4.60;2.30;;;23.70;96.70;;;;;;5035482;28;20041;-74
2023/07/10 02:14:04;;;;;;;4.10;2.80;;;23.70;96.60;;;;;;5035208;28;20033;-75
2023/07/10 02:16:30;;;;;;;4.28;2.30;;;23.70;96.60;;;;;;5035595;28;20030;-74
2023/07/10 02:18:55;;;;;;;4.07;2.15;;;23.70;96.50;;;;;;5035136;28;20029;-74
2023/07/10 02:21:21;;;;;;;4.57;2.30;;;23.80;96.40;;;;;;5035035;28;20033;-73
2023/07/10 02:23:47;;;;;;;3.53;1.95;;;23.80;96.50;;;;;;5035045;28;20030;-74
2023/07/10 02:26:15;;;;;;;4.60;2.13;;;23.90;96.50;;;;;;5034682;28;20567;-75
2023/07/10 02:28:41;;;;;;;3.75;2.10;;;23.90;96.40;;;;;;5033904;28;20405;-74
2023/07/10 02:31:07;;;;;;;5.40;2.25;;;24.00;96.40;;;;;;5035175;28;20116;-75
2023/07/10 02:33:34;;;;;;;4.70;2.17;;;24.00;96.20;;;;;;5033661;28;20385;-74
2023/07/10 02:35:59;;;;;;;4.63;2.30;;;24.00;96.00;;;;;;5035369;28;20029;-75
2023/07/10 02:38:25;;;;;;;3.40;2.00;;;24.00;96.00;;;;;;5035020;28;20033;-74
2023/07/10 02:40:51;;;;;;;4.18;2.00;;;24.00;95.90;;;;;;5035167;28;20436;-75
2023/07/10 02:43:17;;;;;;;5.70;1.95;;;24.10;96.00;;;;;;5016985;28;20061;-74
2023/07/10 02:45:43;;;;;;;6.45;2.10;;;24.10;95.90;;;;;;5034882;28;20452;-75
2023/07/10 02:48:08;;;;;;;5.32;2.13;;;24.10;95.60;;;;;;5017038;28;20377;-74
2023/07/10 02:50:34;;;;;;;3.08;1.60;;;24.00;95.40;;;;;;5034779;28;20094;-74
2023/07/10 02:53:00;;;;;;;4.97;1.63;;;24.00;95.20;;;;;;5034773;28;20030;-75
2023/07/10 02:55:25;;;;;;;4.60;1.90;;;23.90;95.10;;;;;;5034714;28;20458;-74
2023/07/10 02:57:51;;;;;;;5.68;1.83;;;23.80;94.60;;;;;;5034181;28;20080;-74
2023/07/10 03:00:17;;;;;;;4.72;1.90;;;23.70;94.70;;;;;;5034627;28;20466;-74
2023/07/10 03:02:42;;;;;;;5.55;1.73;;;23.70;95.00;;;;;;5034462;28;20117;-74
2023/07/10 03:05:09;;;;;;;7.47;2.10;;;23.70;94.90;;;;;;5016842;28;20037;-73
2023/07/10 03:07:35;;;;;;;4.75;1.80;;;23.60;94.60;;;;;;5034536;28;20026;-74
2023/07/10 03:10:00;;;;;;;4.72;1.60;;;23.60;94.50;;;;;;5034284;28;20037;-74
2023/07/10 03:12:26;;;;;;;2.72;1.70;;;23.60;94.70;;;;;;5034199;28;20033;-74
2023/07/10 03:14:52;;;;;;;3.20;1.50;;;23.60;94.50;;;;;;5034302;28;20079;-74
2023/07/10 03:17:18;;;;;;;2.72;1.58;;;23.60;94.80;;;;;;5016695;28;20417;-74
2023/07/10 03:19:45;;;;;;;6.25;2.13;;;23.60;94.90;;;;;;5034514;28;20425;-74
2023/07/10 03:22:10;;;;;;;2.80;1.55;;;23.60;95.00;;;;;;5034364;28;20033;-74
2023/07/10 03:24:36;;;;;;;4.05;1.73;;;23.60;95.10;;;;;;5033829;28;20108;-73
2023/07/10 03:27:02;;;;;;;4.35;1.50;;;23.70;95.10;;;;;;5033858;28;20063;-73
2023/07/10 03:29:27;;;;;;;2.92;1.60;;;23.70;95.00;;;;;;5016395;28;20071;-74
2023/07/10 03:31:53;;;;;;;3.08;1.48;;;23.70;95.20;;;;;;5016520;28;20033;-74
2023/07/10 03:34:18;;;;;;;4.72;1.52;;;23.70;95.10;;;;;;5015723;28;20029;-74
2023/07/10 03:36:44;;;;;;;6.43;2.65;;;23.70;94.90;;;;;;5016484;28;20033;-75
2023/07/10 03:39:12;;;;;;;4.88;1.52;;;23.70;94.50;;;;;;5034056;28;20040;-74
2023/07/10 03:41:38;;;;;;;5.68;2.10;;;23.60;94.40;;;;;;5033886;28;20098;-74
2023/07/10 03:44:03;;;;;;;4.95;1.65;;;23.50;93.60;;;;;;5033522;28;20108;-73
2023/07/10 03:46:30;;;;;;;5.25;1.80;;;23.50;93.80;;;;;;5033789;28;20032;-74
2023/07/10 03:48:55;;;;;;;2.88;1.70;;;23.30;93.70;;;;;;5033472;28;20033;-74
2023/07/10 03:51:21;;;;;;;3.78;1.60;;;23.20;93.90;;;;;;5033667;28;20029;-73
2023/07/10 03:53:48;;;;;;;4.57;1.90;;;23.20;94.20;;;;;;5033484;28;20088;-74
2023/07/10 03:56:14;;;;;;;4.15;1.77;;;23.10;94.40;;;;;;5033911;28;20048;-73
2023/07/10 03:58:43;;;;;;;4.35;2.08;;;23.10;94.60;;;;;;5033591;28;20048;-73
2023/07/10 04:01:10;;;;;;;5.85;1.98;;;23.10;94.70;;;;;;5033564;28;20052;-74
2023/07/10 04:03:37;;;;;;;5.97;2.10;;;23.00;94.50;;;;;;5015620;28;20033;-73
2023/07/10 04:06:04;;;;;;;4.43;2.03;;;22.90;94.60;;;;;;5033156;28;20108;-73
2023/07/10 04:08:35;;;;;;;5.03;2.28;;;22.80;94.30;;;;;;5033265;28;20025;-74
2023/07/10 04:11:14;;;;;;;6.13;2.50;;;22.70;93.90;;;;;;5033575;28;20026;-74
2023/07/10 04:13:40;;;;;;;5.10;1.90;;;22.70;93.90;;;;;;5033315;28;20029;-74
2023/07/10 04:16:11;;;;;;;3.17;1.58;;;22.60;93.80;;;;;;5033545;28;20034;-74
2023/07/10 04:18:39;;;;;;;4.97;1.75;;;22.60;93.80;;;;;;5033390;28;20373;-74
2023/07/10 04:21:22;;;;;;;4.05;1.40;;;22.50;93.70;;;;;;5033113;28;20030;-74
2023/07/10 04:23:48;;;;;;;4.32;2.30;;;22.50;94.10;;;;;;5015436;28;20026;-73
2023/07/10 04:26:21;;;;;;;4.10;1.80;;;22.50;93.70;;;;;;5033104;28;20472;-74
2023/07/10 04:28:47;;;;;;;;;;;22.40;93.60;;;;;;5033756;28;20037;-74
2023/07/10 04:31:13;;;;;;;4.57;1.95;;;22.40;93.30;;;;;;5033035;28;19983;-74
2023/07/10 04:33:39;;;;;;;3.13;1.63;;;22.30;93.30;;;;;;5032871;28;20397;-73
2023/07/10 04:36:05;;;;;;;6.22;1.80;;;22.30;93.50;;;;;;5033124;28;20109;-74
2023/07/10 04:38:30;;;;;;;3.67;2.00;;;22.30;93.60;;;;;;5033321;28;20116;-74
2023/07/10 04:41:07;;;;;;;7.32;2.47;;;22.20;93.50;;;;;;5015472;28;20029;-73
2023/07/10 04:43:34;;;;;;;8.05;2.40;;;22.10;93.50;;;;;;5032999;28;20033;-73
2023/07/10 04:46:02;;;;;;;5.90;1.67;;;22.10;93.90;;;;;;5032841;28;20030;-73
2023/07/10 04:48:29;;;;;;;6.35;2.33;;;22.10;94.00;;;;;;5032768;28;20087;-74
2023/07/10 04:50:58;;;;;;;8.88;2.45;;;22.00;93.90;;;;;;5033180;28;20041;-73
2023/07/10 04:53:24;;;;;;;16.08;4.32;;;22.00;93.90;;;;;;5033135;28;20056;-74
2023/07/10 04:55:52;;;;;;;5.07;2.10;;;22.00;94.30;;;;;;5034503;28;20061;-74
2023/07/10 04:58:18;;;;;;;5.45;2.08;;;22.00;94.20;;;;;;5036794;28;20025;-73
2023/07/10 05:00:44;;;;;;;4.53;1.55;;;22.00;94.10;;;;;;5019126;28;20485;-74
2023/07/10 05:03:10;;;;;;;6.00;2.85;;;22.00;94.10;;;;;;5036482;28;20462;-74
2023/07/10 05:05:36;;;;;;;6.07;1.88;;;22.00;93.90;;;;;;5036786;28;20513;-75
2023/07/10 05:08:02;;;;;;;6.60;2.67;;;21.90;93.90;;;;;;5036689;28;20116;-75
2023/07/10 05:10:28;;;;;;;6.50;2.00;;;21.90;93.90;;;;;;5036617;28;20029;-75
2023/07/10 05:12:54;;;;;;;6.25;1.85;;;21.80;94.00;;;;;;5033702;28;20087;-75
2023/07/10 05:15:20;;;;;;;10.40;3.53;;;21.80;94.00;;;;;;5036516;28;20398;-74
2023/07/10 05:17:46;;;;;;;5.20;2.05;;;21.70;94.20;;;;;;5036664;28;20029;-74
2023/07/10 05:20:12;;;;;;;9.73;2.97;;;21.80;94.20;;;;;;5036275;28;20029;-75
2023/07/10 05:22:38;;;;;;;8.73;2.55;;;21.70;94.30;;;;;;5018868;28;20032;-75
2023/07/10 05:25:03;;;;;;;4.60;1.65;;;21.70;94.70;;;;;;5036106;28;20026;-75
2023/07/10 05:27:29;;;;;;;7.10;2.58;;;21.70;94.30;;;;;;5035737;28;20111;-75
2023/07/10 05:29:55;;;;;;;5.85;1.90;;;21.70;94.40;;;;;;5016601;28;20056;-77
2023/07/10 05:32:20;;;;;;;8.38;2.25;;;21.70;94.40;;;;;;5000799;28;20033;-74
2023/07/10 05:34:46;;;;;;;6.53;1.80;;;21.60;94.20;;;;;;5036244;28;20082;-74
2023/07/10 05:37:12;;;;;;;5.88;1.75;;;21.60;94.30;;;;;;5035589;28;20038;-74
2023/07/10 05:39:37;;;;;;;9.95;2.20;;;21.60;94.50;;;;;;5036154;28;20029;-74
2023/07/10 05:42:03;;;;;;;7.40;1.30;;;21.60;94.40;;;;;;5035788;28;20038;-75
2023/07/10 05:44:29;;;;;;;7.57;1.70;;;21.60;94.20;;;;;;5018239;28;20026;-74
2023/07/10 05:46:56;;;;;;;5.35;1.73;;;21.60;94.10;;;;;;5018081;28;20032;-76
2023/07/10 05:49:23;;;;;;;4.45;1.50;;;21.50;94.10;;;;;;5017978;28;20478;-75
2023/07/10 05:51:50;;;;;;;6.60;1.77;;;21.50;94.10;;;;;;5035983;28;20386;-76
2023/07/10 05:54:16;;;;;;;5.22;1.40;;;21.50;94.10;;;;;;5035741;28;20134;-75
2023/07/10 05:56:42;;;;;;;4.53;1.58;;;21.60;94.20;;;;;;5033364;28;20112;-78
2023/07/10 05:59:14;;;;;;;3.30;1.55;;;21.60;94.70;;;;;;5022103;28;20029;-82
2023/07/10 06:01:39;;;;;;;10.65;2.25;;;21.60;94.40;;;;;;5010660;28;20071;-80
2023/07/10 06:04:05;;;;;;;7.28;1.90;;;21.60;94.50;;;;;;5033664;28;20029;-81
2023/07/10 06:06:31;;;;;;;9.50;2.28;;;21.60;94.40;;;;;;5006414;28;20029;-81
2023/07/10 06:08:57;;;;;;;6.25;1.80;;;21.50;94.50;;;;;;5014450;28;20034;-81
2023/07/10 06:11:23;;;;;;;4.70;1.60;;;21.60;94.70;;;;;;5031152;28;20370;-80
2023/07/10 06:13:48;;;;;;;3.83;1.13;;;21.90;94.80;;;;;;5036292;28;20066;-82
2023/07/10 06:16:14;;;;;;;5.43;1.40;;;22.00;94.80;;;;;;5036934;28;20420;-81
2023/07/10 06:18:40;;;;;;;3.30;1.30;;;22.30;94.20;;;;;;5019094;28;20030;-78
2023/07/10 06:21:08;;;;;;;2.63;0.70;;;22.40;94.20;;;;;;5038527;28;20036;-81
2023/07/10 06:23:34;;;;;;;5.60;1.67;;;22.60;94.20;;;;;;5036261;28;20033;-82
2023/07/10 06:26:02;;;;;;;3.55;1.10;;;22.80;93.60;;;;;;5027263;28;20050;-78
2023/07/10 06:28:30;;;;;;;5.22;1.30;;;22.90;92.90;;;;;;5031834;28;20030;-74
2023/07/10 06:31:03;;;;;;;4.35;1.02;;;22.90;92.50;;;;;;5031133;28;20033;-75
2023/07/10 06:33:30;;;;;;;3.80;1.15;;;23.10;92.60;;;;;;5021103;28;20022;-74
2023/07/10 06:35:56;;;;;;;4.70;0.85;;;23.20;92.40;;;;;;5004405;28;20044;-74
2023/07/10 06:38:22;;;;;;;4.07;0.70;;;23.30;92.30;;;;;;5022036;28;20038;-74
2023/07/10 06:40:49;;;;;;;3.78;0.80;;;23.40;92.20;;;;;;5025925;28;20036;-74
2023/07/10 06:43:16;;;;;;;4.45;1.00;;;23.60;92.10;;;;;;5029099;28;20113;-74
2023/07/10 06:45:43;;;;;;;1.33;0.40;;;23.70;91.60;;;;;;5030028;28;20210;-74
2023/07/10 06:48:09;;;;;;;2.90;0.70;;;23.90;91.70;;;;;;5024237;28;20308;-75
2023/07/10 06:50:35;;;;;;;2.88;0.75;;;24.00;91.50;;;;;;5024537;28;20121;-74
2023/07/10 06:53:01;;;;;;;3.83;0.88;;;24.00;90.00;;;;;;4997311;28;20112;-76
2023/07/10 06:55:27;;;;;;;5.60;1.10;;;24.00;89.80;;;;;;5047925;28;20025;-76
2023/07/10 06:57:52;;;;;;;5.20;1.30;;;23.90;87.90;;;;;;5036519;28;20079;-75
2023/07/10 07:00:19;;;;;;;6.47;1.13;;;23.70;87.60;;;;;;5054030;28;20036;-76
2023/07/10 07:02:45;;;;;;;6.10;1.10;;;23.60;87.00;;;;;;5054077;28;20036;-75
2023/07/10 07:05:10;;;;;;;6.25;0.70;;;23.50;86.70;;;;;;5054164;28;20374;-75
2023/07/10 07:07:37;;;;;;;6.03;1.10;;;23.40;87.30;;;;;;5021101;28;20061;-75
2023/07/10 07:10:05;;;;;;;4.63;0.90;;;23.30;86.60;;;;;;5014083;28;20434;-75
2023/07/10 07:12:31;;;;;;;4.30;0.70;;;23.20;86.70;;;;;;5014558;28;20116;-75
2023/07/10 07:14:57;;;;;;;5.22;0.75;;;23.20;87.60;;;;;;5013209;28;20443;-76
2023/07/10 07:17:22;;;;;;;3.05;0.60;;;23.30;88.00;;;;;;5014323;28;20128;-77
2023/07/10 07:19:48;;;;;;;4.60;0.60;;;23.40;87.60;;;;;;5012720;28;20048;-76
2023/07/10 07:22:14;;;;;;;5.38;0.90;;;23.30;86.90;;;;;;5014580;28;20088;-75
2023/07/10 07:24:40;;;;;;;3.00;0.70;;;23.30;87.40;;;;;;5014534;28;20128;-76
2023/07/10 07:27:06;;;;;;;5.95;0.85;;;23.30;88.10;;;;;;5028127;28;20497;-75
2023/07/10 07:29:32;;;;;;;6.32;0.52;;;23.40;88.40;;;;;;5033978;28;20045;-76
2023/07/10 07:31:58;;;;;;;5.75;0.88;;;23.40;88.90;;;;;;5033812;28;20029;-76
2023/07/10 07:34:23;;;;;;;9.60;0.85;;;23.40;89.00;;;;;;5016012;28;20033;-76
2023/07/10 07:36:50;;;;;;;9.32;0.95;;;23.40;89.10;;;;;;5033053;28;20497;-76
2023/07/10 07:39:16;;;;;;;4.95;0.70;;;23.50;88.20;;;;;;5011858;28;20092;-75
2023/07/10 07:41:41;;;;;;;3.42;0.60;;;23.50;88.10;;;;;;5001623;28;20025;-77
2023/07/10 07:44:07;;;;;;;5.03;0.88;;;23.50;87.50;;;;;;5050124;28;20108;-78
2023/07/10 07:46:33;;;;;;;3.53;0.73;;;23.40;87.40;;;;;;5053849;28;20385;-78
2023/07/10 07:48:59;;;;;;;4.75;0.90;;;23.50;87.80;;;;;;5053418;28;20111;-78
2023/07/10 07:51:25;;;;;;;4.70;0.75;;;23.50;88.50;;;;;;5053770;28;20427;-78
2023/07/10 07:54:05;;;;;;;8.77;1.60;;;23.50;88.00;;;;;;5010899;28;20041;-75
2023/07/10 07:56:32;;;;;;;8.55;1.15;;;23.60;87.80;;;;;;5023527;28;20087;-76
2023/07/10 07:58:57;;;;;;;9.25;1.02;;;23.70;87.90;;;;;;5028647;28;20033;-76
2023/07/10 08:01:23;;;;;;;6.70;1.13;;;23.70;88.90;;;;;;5014886;28;20036;-75
2023/07/10 08:03:48;;;;;;;2.25;0.60;;;23.70;87.60;;;;;;5030734;28;20021;-76
2023/07/10 08:06:14;;;;;;;5.50;0.93;;;23.80;87.60;;;;;;5031794;28;20080;-76
2023/07/10 08:08:40;;;;;;;4.80;0.75;;;23.90;87.50;;;;;;5012460;28;20536;-76
2023/07/10 08:11:06;;;;;;;7.32;1.65;;;24.00;88.20;;;;;;5024917;28;20050;-76
2023/07/10 08:13:32;;;;;;;5.95;1.00;;;24.00;88.20;;;;;;5027999;28;20030;-76
2023/07/10 08:15:58;;;;;;;5.68;0.98;;;24.00;87.70;;;;;;5033164;28;20030;-76
2023/07/10 08:18:24;;;;;;;5.05;1.13;;;24.00;88.00;;;;;;5015685;28;20032;-77
2023/07/10 08:20:50;;;;;;;8.55;1.10;;;24.00;87.60;;;;;;5033095;28;20033;-75
2023/07/10 08:23:16;;;;;;;8.15;1.20;;;24.00;87.10;;;;;;5015809;28;20029;-75
2023/07/10 08:25:42;;;;;;;6.63;1.05;;;24.00;87.70;;;;;;5033103;28;20080;-75
2023/07/10 08:28:07;;;;;;;4.97;0.95;;;24.10;88.80;;;;;;5031315;28;20061;-76
2023/07/10 08:30:33;;;;;;;5.13;0.80;;;24.10;87.60;;;;;;5033268;28;20105;-74
2023/07/10 08:32:58;;;;;;;5.28;1.00;;;24.20;87.10;;;;;;5036633;28;20034;-74
2023/07/10 08:35:24;;;;;;;5.68;0.90;;;24.20;87.20;;;;;;5036835;28;20025;-75
2023/07/10 08:37:50;;;;;;;8.32;1.20;;;24.20;87.20;;;;;;5034973;28;20034;-75
2023/07/10 08:40:26;;;;;;;6.30;1.13;;;24.20;87.00;;;;;;5037064;28;20040;-74
2023/07/10 08:42:51;;;;;;;8.00;1.05;;;24.30;86.20;;;;;;5037163;28;20026;-75
2023/07/10 08:45:33;;;;;;;5.03;1.38;;;24.30;84.70;;;;;;5036248;28;20077;-74
2023/07/10 08:48:12;;;;;;;4.95;0.90;;;24.30;84.60;;;;;;5037247;28;20175;-74
2023/07/10 08:50:40;;;;;;;6.25;1.48;;;24.30;85.60;;;;;;5050959;28;20067;-75
2023/07/10 08:53:10;;;;;;;4.80;0.90;;;24.40;86.80;;;;;;5056844;28;20036;-74
2023/07/10 08:55:42;;;;;;;4.43;0.60;;;24.50;84.80;;;;;;5039329;28;20416;-75
2023/07/10 08:58:23;;;;;;;9.30;1.63;;;24.50;83.90;;;;;;5056921;28;20057;-74
2023/07/10 09:00:54;;;;;;;6.07;1.07;;;24.60;85.70;;;;;;5042944;28;20022;-74
2023/07/10 09:03:28;;;;;;;8.43;1.30;;;24.60;86.40;;;;;;5023891;28;20021;-75
2023/07/10 09:05:54;;;;;;;5.88;0.77;;;24.50;84.60;;;;;;5029604;28;20025;-74
2023/07/10 09:08:21;;;;;;;4.72;0.70;;;24.60;85.20;;;;;;5019254;28;20493;-74
2023/07/10 09:10:50;;;;;;;6.70;0.95;;;24.70;84.60;;;;;;5002134;28;20447;-75
2023/07/10 09:13:27;;;;;;;4.95;0.85;;;24.80;84.10;;;;;;5036512;28;20091;-74
2023/07/10 09:15:55;;;;;;;8.48;0.93;;;24.80;83.70;;;;;;5018690;28;20034;-74
2023/07/10 09:18:40;;;;;;;5.90;0.95;;;24.90;83.90;;;;;;5036344;28;20474;-73
2023/07/10 09:21:18;;;;;;;7.18;0.95;;;25.00;82.50;;;;;;5036600;28;20030;-75
2023/07/10 09:23:45;;;;;;;7.28;1.70;;;24.90;84.10;;;;;;5014546;28;20029;-75
2023/07/10 09:26:18;;;;;;;5.30;1.10;;;25.00;84.20;;;;;;5035981;28;20081;-74
2023/07/10 09:28:57;;;;;;;7.80;1.20;;;24.90;84.70;;;;;;5036259;28;20040;-74
2023/07/10 09:31:33;;;;;;;7.85;1.13;;;24.90;84.60;;;;;;5036460;28;20087;-76
2023/07/10 09:34:01;;;;;;;6.82;1.17;;;25.00;83.90;;;;;;5031532;28;20084;-74
2023/07/10 09:36:27;;;;;;;8.57;1.45;;;25.00;83.00;;;;;;5035694;28;20026;-73
2023/07/10 09:38:53;;;;;;;7.85;1.55;;;25.10;82.50;;;;;;5017854;28;20033;-74
2023/07/10 09:41:21;;;;;;;7.63;1.27;;;25.10;81.70;;;;;;5035410;28;20029;-73
2023/07/10 09:43:59;;;;;;;6.22;0.98;;;25.10;81.80;;;;;;5035575;28;20359;-73
2023/07/10 09:46:29;;;;;;;8.60;1.83;;;25.20;81.60;;;;;;5034424;28;20113;-73
2023/07/10 09:48:56;;;;;;;4.75;1.23;;;25.20;81.20;;;;;;5032956;28;20032;-73
2023/07/10 09:51:23;;;;;;;6.65;1.15;;;25.20;81.20;;;;;;5035678;28;20033;-75
2023/07/10 09:53:52;;;;;;;4.97;0.95;;;25.20;80.50;;;;;;5035774;28;20552;-74
2023/07/10 09:56:25;;;;;;;6.47;1.42;;;25.30;80.40;;;;;;5034212;28;20037;-73
2023/07/10 09:58:55;;;;;;;4.82;1.23;;;25.30;80.50;;;;;;5023696;28;20033;-73
2023/07/10 10:01:31;;;;;;;6.90;1.23;;;25.30;80.10;;;;;;5029983;28;20029;-73
2023/07/10 10:04:00;;;;;;;7.50;1.15;;;25.40;80.20;;;;;;5005460;28;20029;-73
2023/07/10 10:06:29;;;;;;;7.88;1.10;;;25.50;80.50;;;;;;5025034;28;20061;-74
2023/07/10 10:08:55;;;;;;;5.53;0.98;;;25.60;80.10;;;;;;4997652;28;20048;-75
2023/07/10 10:11:41;;;;;;;6.93;0.85;;;25.60;79.40;;;;;;5017538;28;20033;-75
2023/07/10 10:14:15;;;;;;;5.07;0.88;;;25.70;79.20;;;;;;5035188;28;20041;-75
2023/07/10 10:16:55;;;;;;;4.88;0.90;;;25.70;77.30;;;;;;5035151;28;20096;-76
2023/07/10 10:19:38;;;;;;;8.90;1.20;;;25.60;78.60;;;;;;5035553;28;20481;-75
2023/07/10 10:22:15;;;;;;;5.07;1.52;;;25.70;78.80;;;;;;5035188;28;20022;-75
2023/07/10 10:24:41;;;;;;;8.23;0.82;;;25.90;76.70;;;;;;5034829;28;20025;-73
2023/07/10 10:27:40;;;;;;;4.00;0.90;;;25.90;75.90;;;;;;5034798;28;20099;-74
2023/07/10 10:30:27;;;;;;;5.10;1.00;;;26.10;75.60;;;;;;5035166;28;20029;-75
2023/07/10 10:33:01;;;;;;;4.28;1.00;;;26.10;75.90;;;;;;5017130;28;20116;-74
2023/07/10 10:35:43;;;;;;;8.23;1.10;;;26.20;76.70;;;;;;5034979;28;20053;-74
2023/07/10 10:38:42;;;;;;;5.10;0.82;;;26.20;76.10;;;;;;5035145;28;20037;-74
2023/07/10 10:41:26;;;;;;;4.57;0.90;;;26.10;76.20;;;;;;5020105;28;20033;-74
2023/07/10 10:44:05;;;;;;;4.28;1.05;;;26.20;74.00;;;;;;5035191;28;20033;-74
2023/07/10 10:46:50;;;;;;;3.53;0.68;;;26.10;74.50;;;;;;5017491;28;20080;-76
2023/07/10 10:49:54;;;;;;;4.13;1.08;;;25.90;75.10;;;;;;5034752;28;20029;-73
2023/07/10 10:52:50;;;;;;;4.70;1.08;;;25.80;74.70;;;;;;5016455;28;20069;-74
2023/07/10 10:55:45;;;;;;;5.53;0.70;;;25.70;74.70;;;;;;5034446;28;20025;-74
2023/07/10 10:58:19;;;;;;;3.45;0.80;;;25.70;75.60;;;;;;5034507;28;20428;-74
2023/07/10 11:00:51;;;;;;;6.38;1.17;;;25.80;76.60;;;;;;5016641;28;20029;-74
2023/07/10 11:03:36;;;;;;;6.82;1.20;;;25.90;76.70;;;;;;5034314;28;20347;-74
2023/07/10 11:06:42;;;;;;;6.22;0.88;;;26.00;75.00;;;;;;5034590;28;20045;-75
2023/07/10 11:09:15;;;;;;;7.72;0.90;;;26.20;76.10;;;;;;5034048;28;20033;-75
2023/07/10 11:11:41;;;;;;;3.92;0.88;;;26.40;73.90;;;;;;5034407;28;20037;-75
2023/07/10 11:14:09;;;;;;;7.20;1.20;;;26.50;74.30;;;;;;5034715;28;20125;-76
2023/07/10 11:16:35;;;;;;;7.10;1.08;;;26.60;71.80;;;;;;5033824;28;20458;-75
2023/07/10 11:19:02;;;;;;;5.07;0.88;;;26.70;72.50;;;;;;5016663;28;20048;-75
2023/07/10 11:21:30;;;;;;;5.80;1.00;;;26.70;70.70;;;;;;5016375;28;20038;-75
2023/07/10 11:23:55;;;;;;;5.68;0.80;;;26.80;72.00;;;;;;5034017;28;20531;-75
2023/07/10 11:26:26;;;;;;;7.45;1.45;;;26.90;72.00;;;;;;5033955;28;20053;-75
2023/07/10 11:29:16;;;;;;;2.92;0.70;;;26.90;71.30;;;;;;5034210;28;20029;-75
2023/07/10 11:31:43;;;;;;;8.82;1.45;;;27.00;71.90;;;;;;5033565;28;20421;-74
2023/07/10 11:34:29;;;;;;;3.95;0.90;;;27.00;71.10;;;;;;5033284;28;20030;-74
2023/07/10 11:36:55;;;;;;;7.15;1.10;;;26.90;69.60;;;;;;5002665;28;20389;-75
2023/07/10 11:39:41;;;;;;;6.95;1.05;;;26.90;69.70;;;;;;5000150;28;20044;-75
2023/07/10 11:42:16;;;;;;;4.95;0.73;;;26.90;70.40;;;;;;5033298;28;20041;-75
2023/07/10 11:44:52;;;;;;;6.57;1.00;;;26.90;70.80;;;;;;5033786;28;20030;-75
2023/07/10 11:47:21;;;;;;;6.57;0.88;;;27.00;70.50;;;;;;5033660;28;20116;-76
2023/07/10 11:49:55;;;;;;;5.50;0.82;;;27.00;71.30;;;;;;5034092;28;20033;-75
2023/07/10 11:52:21;;;;;;;6.30;0.80;;;27.10;71.70;;;;;;5016082;28;20501;-75
2023/07/10 11:54:47;;;;;;;5.53;1.00;;;27.30;72.00;;;;;;5033634;28;20104;-75
2023/07/10 11:57:12;;;;;;;5.95;0.90;;;27.20;71.40;;;;;;5033384;28;20025;-75
2023/07/10 11:59:50;;;;;;;5.70;1.02;;;27.20;70.90;;;;;;5033744;28;20083;-75
2023/07/10 12:02:39;;;;;;;4.70;1.00;;;27.40;70.70;;;;;;5033484;28;20032;-75
2023/07/10 12:05:16;;;;;;;5.95;0.90;;;27.40;69.30;;;;;;5033564;28;20129;-75
2023/07/10 12:08:02;;;;;;;7.22;0.90;;;27.50;70.20;;;;;;5015821;28;20481;-75
2023/07/10 12:10:30;;;;;;;4.30;0.77;;;27.50;69.60;;;;;;5022303;28;20103;-75
2023/07/10 12:12:57;;;;;;;5.47;1.10;;;27.50;70.30;;;;;;5015760;28;20033;-76
2023/07/10 12:15:25;;;;;;;6.88;1.10;;;27.70;70.80;;;;;;5015828;28;20034;-75
2023/07/10 12:17:53;;;;;;;9.05;1.30;;;27.80;69.30;;;;;;5033344;28;20021;-74
2023/07/10 12:20:24;;;;;;;5.72;0.85;;;27.80;68.40;;;;;;5015835;28;20030;-75
2023/07/10 12:22:52;;;;;;;4.60;0.98;;;27.80;68.10;;;;;;5033397;28;20021;-75
2023/07/10 12:25:18;;;;;;;7.60;1.38;;;27.80;68.60;;;;;;5033712;28;20036;-75
2023/07/10 12:27:44;;;;;;;4.90;1.10;;;27.80;68.30;;;;;;5033233;28;20058;-74
2023/07/10 12:30:16;;;;;;;6.15;0.98;;;27.90;68.50;;;;;;5033286;28;20064;-75
2023/07/10 12:32:42;;;;;;;4.95;1.08;;;28.00;68.50;;;;;;5032583;28;20414;-75
2023/07/10 12:35:20;;;;;;;5.25;0.80;;;27.90;67.00;;;;;;5015511;28;20038;-75
2023/07/10 12:37:48;;;;;;;6.35;0.70;;;28.00;67.10;;;;;;5033066;28;20018;-75
2023/07/10 12:40:18;;;;;;;4.90;1.00;;;28.10;67.00;;;;;;5033132;28;20037;-76
2023/07/10 12:42:46;;;;;;;4.32;0.63;;;28.10;66.80;;;;;;5033049;28;20495;-75
2023/07/10 12:45:19;;;;;;;3.58;0.98;;;28.20;66.00;;;;;;5015478;28;20133;-75
2023/07/10 12:47:54;;;;;;;5.53;0.85;;;28.10;65.60;;;;;;5033566;28;20037;-75
2023/07/10 12:50:31;;;;;;;4.65;1.05;;;28.10;66.50;;;;;;5032495;28;20474;-75
2023/07/10 12:52:57;;;;;;;6.03;0.80;;;28.20;65.80;;;;;;5015080;28;20513;-75
2023/07/10 12:55:28;;;;;;;6.32;0.90;;;28.30;66.20;;;;;;5015186;28;20086;-75
2023/07/10 12:57:58;;;;;;;6.43;0.80;;;28.40;65.80;;;;;;5032965;28;20049;-75